createdAt,value
2023-04-23T00:00:19.297Z,56.47
2023-04-23T00:02:54.453Z,58.13
2023-04-23T00:05:27.388Z,58.33
2023-04-23T00:07:56.121Z,56.95
2023-04-23T00:10:25.412Z,61.33
2023-04-23T00:12:54.782Z,60.05
2023-04-23T00:15:23.720Z,60.38
2023-04-23T00:17:52.207Z,59.17
2023-04-23T00:20:20.816Z,57.72
2023-04-23T00:22:51.260Z,60.65
2023-04-23T00:25:19.759Z,59.78
2023-04-23T00:27:48.837Z,60.78
2023-04-23T00:30:18.875Z,60.83
2023-04-23T00:32:47.697Z,62.00
2023-04-23T00:35:16.065Z,60.67
2023-04-23T00:37:45.329Z,60.28
2023-04-23T00:40:15.744Z,60.25
2023-04-23T00:42:45.704Z,62.25
2023-04-23T00:45:14.207Z,59.53
2023-04-23T00:47:42.704Z,62.05
2023-04-23T00:50:13.159Z,62.67
2023-04-23T00:52:41.651Z,60.08
2023-04-23T00:55:10.644Z,59.42
2023-04-23T00:57:40.942Z,57.72
2023-04-23T01:00:13.950Z,57.35
2023-04-23T01:02:44.646Z,56.83
2023-04-23T01:05:15.669Z,57.17
2023-04-23T01:07:45.808Z,56.47
2023-04-23T01:10:14.794Z,54.83
2023-04-23T01:12:45.066Z,55.10
2023-04-23T01:15:13.691Z,54.72
2023-04-23T01:17:43.211Z,54.97
2023-04-23T01:20:12.674Z,53.53
2023-04-23T01:22:42.416Z,54.83
2023-04-23T01:25:11.686Z,52.93
2023-04-23T01:27:40.514Z,52.95
2023-04-23T01:30:10.958Z,54.28
2023-04-23T01:32:40.666Z,54.63
2023-04-23T01:35:13.202Z,56.40
2023-04-23T01:37:44.776Z,54.85
2023-04-23T01:40:13.604Z,52.28
2023-04-23T01:42:42.471Z,55.95
2023-04-23T01:45:12.083Z,53.13
2023-04-23T01:47:42.458Z,50.90
2023-04-23T01:50:11.812Z,51.13
2023-04-23T01:52:40.479Z,51.47
2023-04-23T01:55:10.498Z,47.97
2023-04-23T01:57:39.089Z,49.28
2023-04-23T02:00:11.421Z,48.17
2023-04-23T02:02:44.933Z,47.03
2023-04-23T02:05:16.478Z,46.85
2023-04-23T02:07:45.819Z,47.08
2023-04-23T02:10:16.219Z,44.05
2023-04-23T02:12:46.907Z,45.92
2023-04-23T02:15:16.645Z,45.55
2023-04-23T02:17:45.084Z,44.33
2023-04-23T02:20:13.993Z,44.10
2023-04-23T02:22:44.049Z,43.22
2023-04-23T02:25:15.724Z,41.70
2023-04-23T02:27:45.666Z,40.42
2023-04-23T02:30:14.859Z,38.42
2023-04-23T02:32:44.161Z,38.92
2023-04-23T02:35:13.375Z,38.80
2023-04-23T02:37:42.292Z,37.65
2023-04-23T02:40:12.204Z,38.95
2023-04-23T02:42:42.566Z,39.03
2023-04-23T02:45:14.061Z,38.38
2023-04-23T02:47:42.488Z,36.88
2023-04-23T02:50:11.455Z,35.83
2023-04-23T02:52:39.847Z,36.88
2023-04-23T02:55:10.751Z,36.67
2023-04-23T02:57:39.615Z,36.55
2023-04-23T03:00:12.295Z,36.90
2023-04-23T03:02:44.900Z,38.35
2023-04-23T03:05:13.752Z,38.03
2023-04-23T03:07:42.870Z,37.70
2023-04-23T03:10:11.984Z,38.72
2023-04-23T03:12:40.336Z,35.92
2023-04-23T03:15:10.298Z,37.05
2023-04-23T03:17:39.475Z,36.80
2023-04-23T03:20:11.790Z,36.65
2023-04-23T03:22:41.194Z,35.92
2023-04-23T03:25:11.144Z,36.60
2023-04-23T03:27:40.982Z,36.05
2023-04-23T03:30:11.295Z,36.67
2023-04-23T03:32:40.085Z,35.35
2023-04-23T03:35:11.069Z,34.60
2023-04-23T03:37:43.053Z,33.75
2023-04-23T03:40:12.183Z,34.00
2023-04-23T03:42:42.734Z,34.10
2023-04-23T03:45:14.548Z,32.33
2023-04-23T03:47:43.084Z,32.63
2023-04-23T03:50:14.158Z,31.40
2023-04-23T03:52:45.001Z,32.70
2023-04-23T03:55:21.139Z,31.52
2023-04-23T03:57:50.493Z,31.95
2023-04-23T04:00:25.052Z,30.83
2023-04-23T04:02:53.757Z,31.75
2023-04-23T04:05:25.638Z,30.52
2023-04-23T04:07:55.928Z,30.63
2023-04-23T04:10:26.113Z,30.67
2023-04-23T04:12:55.330Z,30.70
2023-04-23T04:15:23.947Z,31.35
2023-04-23T04:17:52.305Z,30.95
2023-04-23T04:20:20.704Z,30.15
2023-04-23T04:22:50.426Z,30.42
2023-04-23T04:25:18.925Z,31.25
2023-04-23T04:27:48.018Z,30.90
2023-04-23T04:30:16.832Z,31.20
2023-04-23T04:32:46.266Z,30.88
2023-04-23T04:35:14.841Z,31.25
2023-04-23T04:37:43.829Z,32.05
2023-04-23T04:40:15.195Z,34.95
2023-04-23T04:42:43.669Z,31.45
2023-04-23T04:45:12.791Z,32.80
2023-04-23T04:47:41.893Z,33.08
2023-04-23T04:50:11.624Z,34.35
2023-04-23T04:52:39.995Z,33.27
2023-04-23T04:55:09.332Z,34.45
2023-04-23T04:57:39.049Z,33.70
2023-04-23T05:00:23.665Z,35.03
2023-04-23T05:02:52.551Z,36.58
2023-04-23T05:05:22.669Z,36.00
2023-04-23T05:07:51.105Z,37.00
2023-04-23T05:10:19.643Z,35.95
2023-04-23T05:12:51.698Z,35.58
2023-04-23T05:15:20.033Z,35.75
2023-04-23T05:17:50.291Z,35.63
2023-04-23T05:20:18.748Z,35.03
2023-04-23T05:22:47.098Z,36.42
2023-04-23T05:25:15.637Z,35.17
2023-04-23T05:27:44.026Z,34.90
2023-04-23T05:30:14.241Z,35.15
2023-04-23T05:32:42.588Z,33.80
2023-04-23T05:35:11.229Z,34.42
2023-04-23T05:37:39.796Z,35.55
2023-04-23T05:40:09.731Z,34.75
2023-04-23T05:42:38.529Z,34.10
2023-04-23T05:45:09.157Z,34.00
2023-04-23T05:47:39.320Z,35.05
2023-04-23T05:50:11.231Z,34.70
2023-04-23T05:52:39.723Z,32.50
2023-04-23T05:55:09.582Z,30.00
2023-04-23T05:57:39.322Z,29.48
2023-04-23T06:00:11.789Z,30.27
2023-04-23T06:02:44.600Z,24.08
2023-04-23T06:05:13.494Z,23.63
2023-04-23T06:07:42.293Z,22.25
2023-04-23T06:10:12.571Z,22.23
2023-04-23T06:12:42.137Z,21.80
2023-04-23T06:15:11.691Z,20.40
2023-04-23T06:17:40.685Z,20.50
2023-04-23T06:20:12.002Z,20.27
2023-04-23T06:22:40.550Z,20.55
2023-04-23T06:25:10.372Z,18.52
2023-04-23T06:27:38.821Z,17.55
2023-04-23T06:30:14.981Z,18.23
2023-04-23T06:32:43.439Z,18.10
2023-04-23T06:35:13.222Z,17.08
2023-04-23T06:37:41.517Z,17.17
2023-04-23T06:40:11.162Z,17.35
2023-04-23T06:42:39.544Z,16.75
2023-04-23T06:45:19.895Z,16.00
2023-04-23T06:47:49.362Z,15.63
2023-04-23T06:50:19.166Z,16.27
2023-04-23T06:52:47.491Z,15.55
2023-04-23T06:55:15.853Z,14.90
2023-04-23T06:57:44.214Z,15.27
2023-04-23T07:00:14.214Z,15.13
2023-04-23T07:02:44.620Z,13.93
2023-04-23T07:05:13.233Z,14.70
2023-04-23T07:07:43.518Z,13.90
2023-04-23T07:10:16.218Z,13.80
2023-04-23T07:12:46.179Z,14.45
2023-04-23T07:15:14.646Z,14.25
2023-04-23T07:17:43.063Z,12.73
2023-04-23T07:20:12.129Z,13.02
2023-04-23T07:22:43.006Z,12.38
2023-04-23T07:25:12.845Z,12.88
2023-04-23T07:27:41.218Z,12.48
2023-04-23T07:30:11.151Z,12.18
2023-04-23T07:32:40.757Z,12.30
2023-04-23T07:35:11.535Z,11.75
2023-04-23T07:37:40.402Z,12.55
2023-04-23T07:40:11.644Z,10.77
2023-04-23T07:42:40.457Z,11.95
2023-04-23T07:45:11.455Z,11.63
2023-04-23T07:47:39.822Z,12.00
2023-04-23T07:50:10.483Z,11.02
2023-04-23T07:52:38.991Z,11.43
2023-04-23T07:55:10.260Z,11.95
2023-04-23T07:57:38.930Z,14.20
2023-04-23T08:00:09.517Z,12.85
2023-04-23T08:02:41.699Z,11.57
2023-04-23T08:05:11.111Z,11.95
2023-04-23T08:07:39.727Z,10.52
2023-04-23T08:10:10.822Z,11.23
2023-04-23T08:12:39.581Z,10.48
2023-04-23T08:15:09.263Z,10.73
2023-04-23T08:17:41.707Z,10.98
2023-04-23T08:20:11.015Z,10.45
2023-04-23T08:22:39.395Z,10.68
2023-04-23T08:25:10.763Z,11.20
2023-04-23T08:27:39.151Z,10.73
2023-04-23T08:30:09.563Z,10.43
2023-04-23T08:32:39.778Z,11.10
2023-04-23T08:35:09.426Z,11.02
2023-04-23T08:37:39.046Z,10.30
2023-04-23T08:40:11.058Z,11.70
2023-04-23T08:42:44.860Z,10.20
2023-04-23T08:45:14.536Z,12.93
2023-04-23T08:47:44.464Z,10.57
2023-04-23T08:50:14.576Z,14.52
2023-04-23T08:52:48.533Z,12.45
2023-04-23T08:55:18.993Z,11.85
2023-04-23T08:57:48.313Z,11.00
2023-04-23T09:00:18.866Z,11.75
2023-04-23T09:05:17.579Z,12.35
2023-04-23T09:07:46.373Z,11.82
2023-04-23T09:10:18.500Z,11.13
2023-04-23T09:12:48.273Z,10.00
2023-04-23T09:15:18.236Z,9.15
2023-04-23T09:17:48.234Z,9.32
2023-04-23T09:20:17.674Z,9.85
2023-04-23T09:22:48.127Z,8.70
2023-04-23T09:25:20.334Z,8.88
2023-04-23T09:27:50.325Z,8.30
2023-04-23T09:30:19.970Z,10.63
2023-04-23T09:32:49.685Z,8.63
2023-04-23T09:35:20.812Z,9.43
2023-04-23T09:37:53.325Z,9.40
2023-04-23T09:40:25.524Z,8.40
2023-04-23T09:42:55.105Z,8.32
2023-04-23T09:45:25.213Z,8.65
2023-04-23T09:47:56.002Z,8.07
2023-04-23T09:50:34.812Z,7.93
2023-04-23T09:53:03.296Z,7.25
2023-04-23T09:55:38.460Z,7.35
2023-04-23T09:58:08.867Z,6.85
2023-04-23T10:00:38.897Z,9.05
2023-04-23T10:03:08.978Z,8.38
2023-04-23T10:08:14.601Z,7.18
2023-04-23T10:10:57.520Z,7.93
2023-04-23T10:13:34.813Z,7.15
2023-04-23T10:16:20.690Z,8.40
2023-04-23T10:18:55.279Z,7.63
2023-04-23T10:21:34.050Z,7.03
2023-04-23T10:24:11.777Z,7.35
2023-04-23T10:26:44.220Z,6.60
2023-04-23T10:29:18.923Z,6.65
2023-04-23T10:31:48.541Z,5.97
2023-04-23T10:34:17.488Z,6.88
2023-04-23T10:36:45.944Z,6.63
2023-04-23T10:39:24.094Z,5.97
2023-04-23T10:42:01.302Z,6.32
2023-04-23T10:47:15.969Z,6.03
2023-04-23T10:49:45.816Z,5.97
2023-04-23T10:52:21.153Z,5.65
2023-04-23T10:54:59.895Z,5.70
2023-04-23T10:57:30.284Z,5.72
2023-04-23T10:59:59.538Z,5.80
2023-04-23T11:02:28.426Z,5.90
2023-04-23T11:04:59.028Z,5.75
2023-04-23T11:10:01.597Z,6.72
2023-04-23T11:12:34.893Z,6.82
2023-04-23T11:15:12.812Z,6.40
2023-04-23T11:18:12.982Z,6.00
2023-04-23T11:20:42.217Z,6.50
2023-04-23T11:23:33.007Z,6.07
2023-04-23T11:26:02.435Z,5.00
2023-04-23T11:28:35.092Z,5.60
2023-04-23T11:31:04.227Z,5.22
2023-04-23T11:33:32.990Z,4.95
2023-04-23T11:36:03.900Z,5.32
2023-04-23T11:38:34.109Z,5.60
2023-04-23T11:41:05.322Z,5.50
2023-04-23T11:43:35.612Z,5.57
2023-04-23T11:46:04.176Z,5.43
2023-04-23T11:48:32.697Z,5.53
2023-04-23T11:51:01.191Z,5.20
2023-04-23T11:53:29.501Z,4.97
2023-04-23T11:55:57.976Z,5.63
2023-04-23T11:58:26.401Z,5.03
2023-04-23T12:01:00.695Z,5.40
2023-04-23T12:03:30.137Z,5.85
2023-04-23T12:06:00.034Z,5.63
2023-04-23T12:08:36.046Z,6.38
2023-04-23T12:11:06.753Z,6.00
2023-04-23T12:16:06.363Z,5.13
2023-04-23T12:18:38.077Z,4.82
2023-04-23T12:21:07.306Z,4.82
2023-04-23T12:23:36.741Z,4.88
2023-04-23T12:26:06.136Z,4.85
2023-04-23T12:28:34.489Z,5.05
2023-04-23T12:31:05.226Z,5.15
2023-04-23T12:33:33.723Z,4.32
2023-04-23T12:36:02.114Z,4.65
2023-04-23T12:38:31.566Z,4.82
2023-04-23T12:41:01.918Z,4.70
2023-04-23T12:43:30.618Z,4.00
2023-04-23T12:45:58.926Z,5.72
2023-04-23T12:48:29.375Z,4.70
2023-04-23T12:50:57.937Z,5.07
2023-04-23T12:53:26.584Z,5.20
2023-04-23T12:55:55.360Z,5.80
2023-04-23T12:58:23.964Z,5.43
2023-04-23T13:00:52.380Z,5.63
2023-04-23T13:03:20.903Z,5.70
2023-04-23T13:05:51.282Z,6.72
2023-04-23T13:08:20.166Z,7.00
2023-04-23T13:10:50.037Z,6.97
2023-04-23T13:13:18.470Z,6.28
2023-04-23T13:15:47.169Z,6.88
2023-04-23T13:18:15.705Z,5.82
2023-04-23T13:20:44.210Z,5.75
2023-04-23T13:23:13.969Z,5.80
2023-04-23T13:25:42.498Z,6.40
2023-04-23T13:28:10.780Z,5.70
2023-04-23T13:30:39.208Z,6.68
2023-04-23T13:33:07.558Z,5.80
2023-04-23T13:35:37.786Z,6.13
2023-04-23T13:38:06.280Z,6.32
2023-04-23T13:40:36.545Z,6.70
2023-04-23T13:45:33.566Z,7.13
2023-04-23T13:48:02.558Z,6.93
2023-04-23T13:50:30.976Z,6.95
2023-04-23T13:52:59.440Z,7.47
2023-04-23T13:55:28.263Z,7.20
2023-04-23T13:57:58.855Z,7.55
2023-04-23T14:02:58.327Z,6.53
2023-04-23T14:05:26.936Z,7.45
2023-04-23T14:07:55.369Z,6.15
2023-04-23T14:10:24.223Z,7.25
2023-04-23T14:12:53.217Z,6.07
2023-04-23T14:15:23.382Z,5.95
2023-04-23T14:17:51.841Z,4.97
2023-04-23T14:20:20.792Z,5.13
2023-04-23T14:22:51.845Z,3.88
2023-04-23T14:25:27.530Z,4.55
2023-04-23T14:27:58.450Z,4.20
2023-04-23T14:30:29.684Z,4.28
2023-04-23T14:32:58.215Z,4.47
2023-04-23T14:35:39.490Z,4.63
2023-04-23T14:38:12.708Z,5.00
2023-04-23T14:40:41.158Z,5.20
2023-04-23T14:43:15.397Z,4.32
2023-04-23T14:45:47.013Z,5.07
2023-04-23T14:48:15.470Z,4.70
2023-04-23T14:50:43.914Z,4.63
2023-04-23T14:53:12.338Z,4.97
2023-04-23T14:55:43.233Z,5.28
2023-04-23T14:58:11.834Z,4.80
2023-04-23T15:00:42.507Z,5.57
2023-04-23T15:05:42.014Z,5.30
2023-04-23T15:08:13.939Z,5.28
2023-04-23T15:10:47.276Z,5.22
2023-04-23T15:13:50.874Z,4.97
2023-04-23T15:16:47.490Z,5.10
2023-04-23T15:19:19.420Z,5.07
2023-04-23T15:24:16.948Z,5.25
2023-04-23T15:26:46.848Z,5.10
2023-04-23T15:29:15.479Z,4.30
2023-04-23T15:31:44.035Z,5.00
2023-04-23T15:34:12.502Z,4.78
2023-04-23T15:36:42.287Z,4.95
2023-04-23T15:39:10.906Z,4.60
2023-04-23T15:41:41.323Z,4.78
2023-04-23T15:44:12.546Z,4.97
2023-04-23T15:46:41.230Z,4.63
2023-04-23T15:49:09.602Z,4.85
2023-04-23T15:51:38.428Z,4.32
2023-04-23T15:54:09.084Z,4.78
2023-04-23T15:59:07.674Z,4.20
2023-04-23T16:01:37.145Z,4.15
2023-04-23T16:04:11.121Z,5.18
2023-04-23T16:06:40.356Z,4.60
2023-04-23T16:09:12.053Z,5.00
2023-04-23T16:11:41.153Z,4.30
2023-04-23T16:14:10.120Z,4.65
2023-04-23T16:16:39.298Z,4.93
2023-04-23T16:19:07.806Z,5.13
2023-04-23T16:21:36.175Z,5.05
2023-04-23T16:24:04.854Z,5.18
2023-04-23T16:26:34.795Z,4.70
2023-04-23T16:29:16.408Z,4.38
2023-04-23T16:31:45.706Z,4.78
2023-04-23T16:34:14.045Z,5.28
2023-04-23T16:36:42.575Z,4.95
2023-04-23T16:39:11.447Z,4.60
2023-04-23T16:41:41.494Z,4.50
2023-04-23T16:44:10.112Z,4.90
2023-04-23T16:46:38.775Z,4.70
2023-04-23T16:49:07.137Z,4.82
2023-04-23T16:51:35.538Z,4.55
2023-04-23T16:54:03.949Z,4.53
2023-04-23T16:56:32.937Z,4.70
2023-04-23T16:59:03.187Z,5.22
2023-04-23T17:01:31.584Z,4.43
2023-04-23T17:04:00.130Z,4.97
2023-04-23T17:06:30.852Z,4.85
2023-04-23T17:09:01.415Z,4.80
2023-04-23T17:11:31.456Z,5.07
2023-04-23T17:14:01.899Z,4.95
2023-04-23T17:16:31.025Z,4.75
2023-04-23T17:18:59.449Z,4.53
2023-04-23T17:21:28.543Z,5.07
2023-04-23T17:23:57.189Z,4.95
2023-04-23T17:26:25.616Z,5.20
2023-04-23T17:28:53.955Z,5.05
2023-04-23T17:31:23.813Z,4.88
2023-04-23T17:33:53.644Z,6.50
2023-04-23T17:36:22.028Z,5.55
2023-04-23T17:38:50.437Z,5.40
2023-04-23T17:41:19.166Z,5.50
2023-04-23T17:43:49.229Z,5.10
2023-04-23T17:46:17.981Z,5.22
2023-04-23T17:48:48.251Z,5.70
2023-04-23T17:51:17.155Z,5.40
2023-04-23T17:53:49.031Z,5.60
2023-04-23T17:56:17.757Z,6.00
2023-04-23T17:58:46.567Z,5.65
2023-04-23T18:01:17.615Z,5.50
2023-04-23T18:03:48.062Z,5.13
2023-04-23T18:06:16.822Z,6.32
2023-04-23T18:08:45.300Z,6.00
2023-04-23T18:11:14.882Z,6.00
2023-04-23T18:13:44.321Z,5.22
2023-04-23T18:16:13.008Z,5.35
2023-04-23T18:18:41.474Z,5.50
2023-04-23T18:21:13.393Z,5.38
2023-04-23T18:23:41.858Z,5.32
2023-04-23T18:26:10.272Z,5.82
2023-04-23T18:28:38.823Z,5.50
2023-04-23T18:31:07.346Z,5.82
2023-04-23T18:33:44.040Z,5.40
2023-04-23T18:36:25.775Z,5.60
2023-04-23T18:38:54.837Z,5.93
2023-04-23T18:41:23.604Z,5.70
2023-04-23T18:43:52.045Z,5.80
2023-04-23T18:46:23.717Z,6.28
2023-04-23T18:49:00.423Z,6.05
2023-04-23T18:51:39.731Z,6.20
2023-04-23T18:54:08.236Z,6.13
2023-04-23T18:56:36.778Z,6.15
2023-04-23T18:59:05.123Z,6.20
2023-04-23T19:01:33.558Z,5.95
2023-04-23T19:04:02.172Z,5.60
2023-04-23T19:06:32.374Z,5.40
2023-04-23T19:09:01.348Z,6.07
2023-04-23T19:11:34.132Z,5.80
2023-04-23T19:14:02.867Z,5.85
2023-04-23T19:16:31.317Z,5.50
2023-04-23T19:19:00.022Z,6.15
2023-04-23T19:21:28.841Z,6.20
2023-04-23T19:23:58.575Z,6.07
2023-04-23T19:26:27.058Z,5.77
2023-04-23T19:28:55.978Z,6.53
2023-04-23T19:31:24.460Z,6.20
2023-04-23T19:33:52.890Z,6.13
2023-04-23T19:36:21.249Z,6.20
2023-04-23T19:38:49.866Z,6.82
2023-04-23T19:41:19.674Z,6.63
2023-04-23T19:43:48.150Z,6.80
2023-04-23T19:46:16.642Z,6.65
2023-04-23T19:48:45.009Z,6.53
2023-04-23T19:51:13.483Z,7.55
2023-04-23T19:53:41.788Z,7.03
2023-04-23T19:56:13.186Z,6.80
2023-04-23T19:58:42.933Z,7.25
2023-04-23T20:01:13.144Z,6.72
2023-04-23T20:03:43.047Z,7.13
2023-04-23T20:06:11.605Z,7.80
2023-04-23T20:09:02.536Z,7.72
2023-04-23T20:11:31.109Z,8.07
2023-04-23T20:14:01.157Z,7.80
2023-04-23T20:16:29.715Z,7.68
2023-04-23T20:18:58.191Z,7.93
2023-04-23T20:21:26.893Z,8.02
2023-04-23T20:23:55.279Z,7.65
2023-04-23T20:26:23.764Z,7.95
2023-04-23T20:28:52.117Z,7.90
2023-04-23T20:31:22.408Z,6.90
2023-04-23T20:33:50.769Z,7.22
2023-04-23T20:36:20.054Z,7.20
2023-04-23T20:38:48.582Z,6.95
2023-04-23T20:41:17.218Z,6.93
2023-04-23T20:43:45.729Z,7.13
2023-04-23T20:46:14.162Z,6.82
2023-04-23T20:48:44.012Z,6.40
2023-04-23T20:51:12.508Z,6.78
2023-04-23T20:53:40.873Z,6.38
2023-04-23T20:56:09.205Z,6.38
2023-04-23T20:58:37.932Z,7.45
2023-04-23T21:01:07.608Z,8.02
2023-04-23T21:03:37.087Z,7.78
2023-04-23T21:06:09.721Z,8.35
2023-04-23T21:08:38.932Z,8.45
2023-04-23T21:11:11.060Z,9.63
2023-04-23T21:13:39.648Z,8.77
2023-04-23T21:16:08.335Z,9.15
2023-04-23T21:18:40.038Z,8.75
2023-04-23T21:21:09.887Z,6.68
2023-04-23T21:23:38.236Z,5.50
2023-04-23T21:26:07.557Z,4.85
2023-04-23T21:28:36.200Z,4.55
2023-04-23T21:31:12.302Z,5.13
2023-04-23T21:33:40.721Z,5.35
2023-04-23T21:36:10.739Z,4.82
2023-04-23T21:38:39.072Z,5.32
2023-04-23T21:41:07.817Z,6.13
2023-04-23T21:43:36.432Z,6.32
2023-04-23T21:46:04.835Z,6.57
2023-04-23T21:48:33.472Z,5.43
2023-04-23T21:51:02.273Z,4.20
2023-04-23T21:53:31.955Z,3.42
2023-04-23T21:56:00.489Z,3.40
2023-04-23T21:58:31.272Z,3.45
2023-04-23T22:00:59.658Z,3.58
2023-04-23T22:03:38.735Z,3.38
2023-04-23T22:06:09.523Z,3.75
2023-04-23T22:08:40.267Z,3.35
2023-04-23T22:11:09.251Z,4.47
2023-04-23T22:13:38.161Z,3.50
2023-04-23T22:16:20.345Z,3.67
2023-04-23T22:18:53.638Z,4.07
2023-04-23T22:21:22.016Z,3.50
2023-04-23T22:23:51.799Z,3.78
2023-04-23T22:26:20.162Z,3.63
2023-04-23T22:28:48.729Z,3.60
2023-04-23T22:31:17.440Z,3.67
2023-04-23T22:33:45.868Z,3.70
2023-04-23T22:36:14.260Z,3.92
2023-04-23T22:38:42.631Z,4.13
2023-04-23T22:41:12.405Z,4.18
2023-04-23T22:43:40.851Z,4.00
2023-04-23T22:46:09.408Z,3.92
2023-04-23T22:48:44.980Z,3.80
2023-04-23T22:51:13.485Z,4.00
2023-04-23T22:53:41.939Z,4.38
2023-04-23T22:56:11.691Z,3.80
2023-04-23T22:58:40.336Z,4.20
2023-04-23T23:01:08.720Z,3.92
2023-04-23T23:03:37.090Z,4.10
2023-04-23T23:06:06.229Z,4.10
2023-04-23T23:08:34.580Z,3.55
2023-04-23T23:11:02.920Z,3.92
2023-04-23T23:13:32.602Z,3.88
2023-04-23T23:16:04.702Z,4.15
2023-04-23T23:18:33.317Z,3.63
2023-04-23T23:21:01.595Z,4.35
2023-04-23T23:23:29.907Z,4.30
2023-04-23T23:26:00.086Z,3.80
2023-04-23T23:28:28.789Z,4.30
2023-04-23T23:30:58.615Z,4.43
2023-04-23T23:33:27.292Z,4.13
2023-04-23T23:35:56.246Z,3.92
2023-04-23T23:38:24.797Z,3.90
2023-04-23T23:40:53.094Z,4.30
2023-04-23T23:43:21.516Z,3.65
2023-04-23T23:45:49.983Z,4.25
2023-04-23T23:48:19.831Z,4.47
2023-04-23T23:50:48.238Z,4.15
2023-04-23T23:53:16.596Z,4.72
2023-04-23T23:55:44.927Z,5.13
2023-04-23T23:58:13.298Z,4.70
